Santa Maria Manuela — CSKO — position and weather

sailwx.info

Track history (hours):
 
Tides and Currents Weather Stations Pressure Air Temp Water Temp Dewpoint Dewpoint Depression Visibility Wind Speed Wind Dir Waves Ship Positions

Santa Maria Manuela

Last reported at 2019-Apr-23 01:19 UTC. Time now 2019-Apr-25 16:00 UTC.
Position N 37°49' W 000°18'.

Length 68 m; draft 4.3 m.

Type: Sailing vessel. MMSI: 255806006.

Date/timePositionNaut miles runAvg speedWind from/ knotsBaromVisibWave heightAir tempDewpointWater temp
2019-Apr-23 01:19N 37°49' W 000°18'  
2019-Apr-19 15:52N 36°44' W 008°21'6 5.4
2019-Apr-19 14:42N 36°46' W 008°28'1 5.3
2019-Apr-19 14:30N 36°47' W 008°29'3 5.4
2019-Apr-19 14:00N 36°48' W 008°32'3 5.5
2019-Apr-19 13:27N 36°49' W 008°36'3 5.3
2019-Apr-19 12:53N 36°50' W 008°39'2 5.2
2019-Apr-19 12:30N 36°51' W 008°42'3 5.0
2019-Apr-19 12:00N 36°52' W 008°45'3 4.9
2019-Apr-19 11:29N 36°53' W 008°48'32 4.3
2019-Apr-19 04:03N 37°20' W 009°06'5 5.2
2019-Apr-19 03:00N 37°26' W 009°07'3 5.3
2019-Apr-19 02:29N 37°29' W 009°07'3 5.3
2019-Apr-19 02:00N 37°31' W 009°07'3 5.5
2019-Apr-19 01:30N 37°34' W 009°08'3 5.5
2019-Apr-19 00:58N 37°37' W 009°08'3 5.6
2019-Apr-19 00:30N 37°39' W 009°09'3 5.6
2019-Apr-19 00:00N 37°42' W 009°09'3 5.8
2019-Apr-18 23:30N 37°45' W 009°09'3 5.9
2019-Apr-18 23:00N 37°48' W 009°10'3 6.0
2019-Apr-18 22:30N 37°51' W 009°10'3 5.9
2019-Apr-18 22:01N 37°54' W 009°11'3 5.8
2019-Apr-18 21:30N 37°57' W 009°11'3 5.8
2019-Apr-18 21:01N 37°60' W 009°11'3 5.9
2019-Apr-18 20:30N 38°03' W 009°11'3 5.8
2019-Apr-18 20:00N 38°06' W 009°12'3 5.9
2019-Apr-18 19:30N 38°08' W 009°13'3 6.1
2019-Apr-18 19:00N 38°11' W 009°14'3 5.8
2019-Apr-18 18:30N 38°14' W 009°15'3 5.8
2019-Apr-18 18:00N 38°17' W 009°16'3 5.9
2019-Apr-18 17:30N 38°20' W 009°17'3 5.7
2019-Apr-18 17:00N 38°22' W 009°18'3 5.7
2019-Apr-18 16:30N 38°25' W 009°18'3 5.7
2019-Apr-18 16:00N 38°28' W 009°19'3 5.8
2019-Apr-18 15:30N 38°31' W 009°20'3 5.6
2019-Apr-18 15:01N 38°33' W 009°21'3 5.6
2019-Apr-18 14:30N 38°36' W 009°22'2 4.9
2019-Apr-18 14:00N 38°38' W 009°21'3 5.4
2019-Apr-18 13:30N 38°40' W 009°18'2 4.0
2019-Apr-18 13:00N 38°41' W 009°16'2 4.0
2019-Apr-18 12:30N 38°41' W 009°14'1 1.7
2019-Apr-18 12:00N 38°41' W 009°13'0 0.0
2019-Apr-18 11:30N 38°41' W 009°13'0 0.0
2019-Apr-18 10:57N 38°41' W 009°13'0 0.0
2019-Apr-18 10:21N 38°41' W 009°13'0 0.0
2019-Apr-18 09:58N 38°41' W 009°13'0 0.0
2019-Apr-18 09:30N 38°41' W 009°13'0 0.0
2019-Apr-18 09:00N 38°41' W 009°13'0 0.0
2019-Apr-18 08:31N 38°41' W 009°13'0 0.0
2019-Apr-18 08:00N 38°41' W 009°13'3 5.4
2019-Apr-18 07:30N 38°42' W 009°09'5 9.5
2019-Apr-18 07:00N 38°45' W 009°05'0 0.6
2019-Apr-18 06:30N 38°45' W 009°05'0 0.0
2019-Apr-18 06:00N 38°45' W 009°05'0 0.0
2019-Apr-18 05:30N 38°45' W 009°05'0 0.0
2019-Apr-18 05:00N 38°45' W 009°05'0 0.0
2019-Apr-18 04:30N 38°45' W 009°05'0 0.0
2019-Apr-18 04:00N 38°45' W 009°05'0 0.0
2019-Apr-18 03:30N 38°45' W 009°05'0 0.0
2019-Apr-18 03:00N 38°45' W 009°05'0 0.0
2019-Apr-18 02:30N 38°45' W 009°05'0 0.0
2019-Apr-18 02:00N 38°45' W 009°05'0 0.0
2019-Apr-18 01:30N 38°45' W 009°05'0 0.0
2019-Apr-18 01:00N 38°45' W 009°05'0 0.0
2019-Apr-18 00:30N 38°45' W 009°05'0 0.0
2019-Apr-18 00:00N 38°45' W 009°05'0 0.0
2019-Apr-17 23:30N 38°45' W 009°05'0 0.0
2019-Apr-17 23:00N 38°45' W 009°05'0 0.0
2019-Apr-17 22:30N 38°45' W 009°05'0 0.0
2019-Apr-17 22:00N 38°45' W 009°05'0 0.0
2019-Apr-17 21:24N 38°45' W 009°05'0 0.0
2019-Apr-17 21:00N 38°45' W 009°05'0 0.0
2019-Apr-17 20:27N 38°45' W 009°05'0 0.0
2019-Apr-17 19:54N 38°45' W 009°05'0 0.0
2019-Apr-17 19:30N 38°45' W 009°05'0 0.0
2019-Apr-17 19:00N 38°45' W 009°05'0 0.0
2019-Apr-17 18:27N 38°45' W 009°05'0 0.0
2019-Apr-17 18:00N 38°45' W 009°05'0 0.0
2019-Apr-17 17:30N 38°45' W 009°05'0 0.0
2019-Apr-17 17:00N 38°45' W 009°05'0 0.0
2019-Apr-17 16:30N 38°45' W 009°05'0 0.0
2019-Apr-17 15:57N 38°45' W 009°05'0 0.0
2019-Apr-17 15:30N 38°45' W 009°05'0 0.0
2019-Apr-17 15:00N 38°45' W 009°05'0 0.0
2019-Apr-17 14:30N 38°45' W 009°05'0 0.0
2019-Apr-17 14:00N 38°45' W 009°05'0 0.0
2019-Apr-17 13:30N 38°45' W 009°05'0 0.0
2019-Apr-17 12:57N 38°45' W 009°05'0 0.0
2019-Apr-17 12:30N 38°45' W 009°05'0 0.0
2019-Apr-17 12:00N 38°45' W 009°05'0 0.0
2019-Apr-17 11:30N 38°45' W 009°05'0 0.0
2019-Apr-17 11:00N 38°45' W 009°05'0 0.0
2019-Apr-17 10:30N 38°45' W 009°05'0 0.0
2019-Apr-17 10:00N 38°45' W 009°05'0 0.0
2019-Apr-17 09:30N 38°45' W 009°05'0 0.0
2019-Apr-17 09:00N 38°45' W 009°05'0 0.0
2019-Apr-17 08:30N 38°45' W 009°05'0 0.0
2019-Apr-17 08:00N 38°45' W 009°05'0 0.0
2019-Apr-17 07:30N 38°45' W 009°05'0 0.0
2019-Apr-17 07:00N 38°45' W 009°05'0 0.0
2019-Apr-17 06:30N 38°45' W 009°05'0 0.0
2019-Apr-17 06:00N 38°45' W 009°05'0 0.0
2019-Apr-17 05:30N 38°45' W 009°05'0 0.0
2019-Apr-17 05:00N 38°45' W 009°05'0 0.0
2019-Apr-17 04:27N 38°45' W 009°05'0 0.0
2019-Apr-17 04:00N 38°45' W 009°05'0 0.0
2019-Apr-17 03:30N 38°45' W 009°05'0 0.0
2019-Apr-17 03:00N 38°45' W 009°05'0 0.0
2019-Apr-17 02:30N 38°45' W 009°05'0 0.0
2019-Apr-17 01:57N 38°45' W 009°05'0 0.0
2019-Apr-17 01:30N 38°45' W 009°05'0 0.0
2019-Apr-17 01:00N 38°45' W 009°05'0 0.0
2019-Apr-17 00:30N 38°45' W 009°05'0 0.0
2019-Apr-17 00:00N 38°45' W 009°05'0 0.0
2019-Apr-16 23:30N 38°45' W 009°05'0 0.0
2019-Apr-16 23:00N 38°45' W 009°05'0 0.0
2019-Apr-16 22:30N 38°45' W 009°05'0 0.0
2019-Apr-16 22:00N 38°45' W 009°05'0 0.0
2019-Apr-16 21:30N 38°45' W 009°05'0 0.0
2019-Apr-16 21:00N 38°45' W 009°05'0 0.0
2019-Apr-16 20:27N 38°45' W 009°05'0 0.0
2019-Apr-16 20:00N 38°45' W 009°05'0 0.0
2019-Apr-16 19:27N 38°45' W 009°05'0 0.0
2019-Apr-16 19:00N 38°45' W 009°05'0 0.0
2019-Apr-16 18:30N 38°45' W 009°05'0 0.0
2019-Apr-16 18:00N 38°45' W 009°05'0 0.0
2019-Apr-16 17:30N 38°45' W 009°05'0 0.0
2019-Apr-16 16:57N 38°45' W 009°05'0 0.0
2019-Apr-16 16:30N 38°45' W 009°05'2 4.0
2019-Apr-16 16:00N 38°44' W 009°06'3 5.3
2019-Apr-16 15:30N 38°42' W 009°09'3 5.5
2019-Apr-16 15:00N 38°41' W 009°12'3 6.0
2019-Apr-16 14:30N 38°41' W 009°16'3 6.1
2019-Apr-16 14:00N 38°39' W 009°19'4 7.3
2019-Apr-16 13:31N 38°37' W 009°23'4 7.2
2019-Apr-16 13:00N 38°33' W 009°24'1 1.3
2019-Apr-16 12:30N 38°34' W 009°25'1 2.7
2019-Apr-16 12:00N 38°33' W 009°26'1 3.0
2019-Apr-16 11:30N 38°31' W 009°26'2 3.3
2019-Apr-16 11:01N 38°30' W 009°25'2 3.3
2019-Apr-16 10:30N 38°28' W 009°24'2 3.2
2019-Apr-16 10:00N 38°27' W 009°23'2 3.3
2019-Apr-16 09:30N 38°25' W 009°22'2 3.4
2019-Apr-16 09:00N 38°24' W 009°22'1 2.8
2019-Apr-16 08:30N 38°23' W 009°20'2 3.1
2019-Apr-16 08:01N 38°23' W 009°19'2 3.1
2019-Apr-16 07:30N 38°23' W 009°17'2 3.1
2019-Apr-16 07:00N 38°23' W 009°15'1 2.9
2019-Apr-16 06:31N 38°23' W 009°13'1 2.6
2019-Apr-16 06:00N 38°23' W 009°11'1 2.6
2019-Apr-16 05:30N 38°23' W 009°09'1 1.7
2019-Apr-16 05:00N 38°23' W 009°08'1 1.3
2019-Apr-16 04:30N 38°24' W 009°08'1 1.2
2019-Apr-16 04:00N 38°24' W 009°07'1 1.6
2019-Apr-16 03:30N 38°24' W 009°06'1 1.4
2019-Apr-16 03:00N 38°24' W 009°05'1 1.2
2019-Apr-16 02:30N 38°24' W 009°04'1 1.2
2019-Apr-16 02:00N 38°24' W 009°03'1 1.2
2019-Apr-16 01:30N 38°24' W 009°03'1 1.2
2019-Apr-16 01:00N 38°25' W 009°02'1 1.2
2019-Apr-16 00:30N 38°25' W 009°01'1 1.0
2019-Apr-16 00:01N 38°25' W 009°01'1 1.0
2019-Apr-15 23:30N 38°25' W 009°00'1 1.1
2019-Apr-15 23:00N 38°25' W 008°59'1 1.2
2019-Apr-15 22:30N 38°25' W 008°59'1 2.1
2019-Apr-15 22:00N 38°25' W 008°58'1 1.8
2019-Apr-15 21:30N 38°24' W 008°57'1 1.4
2019-Apr-15 21:00N 38°24' W 008°56'1 1.5
2019-Apr-15 20:29N 38°23' W 008°57'1 2.4
2019-Apr-15 20:00N 38°23' W 008°58'1 2.7
2019-Apr-15 19:31N 38°23' W 008°60'1 2.8
2019-Apr-15 19:01N 38°23' W 009°02'2 3.1
2019-Apr-15 18:30N 38°22' W 009°03'2 3.1
2019-Apr-15 18:01N 38°22' W 009°05'2 4.1
2019-Apr-15 17:30N 38°22' W 009°08'2 4.6
2019-Apr-15 17:00N 38°22' W 009°11'3 5.1
2019-Apr-15 16:30N 38°23' W 009°14'2 4.9
2019-Apr-15 16:01N 38°24' W 009°17'3 5.3
2019-Apr-15 15:30N 38°26' W 009°19'2 5.0
2019-Apr-15 15:00N 38°28' W 009°21'3 5.7
2019-Apr-15 14:31N 38°28' W 009°25'2 4.2
2019-Apr-15 14:00N 38°29' W 009°27'1 2.2
2019-Apr-15 13:31N 38°30' W 009°28'2 3.3
2019-Apr-15 13:01N 38°31' W 009°29'2 4.4
2019-Apr-15 12:31N 38°33' W 009°29'2 3.1
2019-Apr-15 12:01N 38°34' W 009°27'1 2.9
2019-Apr-15 11:30N 38°35' W 009°26'2 3.0
2019-Apr-15 11:00N 38°36' W 009°24'1 3.0
2019-Apr-15 10:31N 38°37' W 009°23'2 4.4
2019-Apr-15 10:00N 38°39' W 009°21'2 4.8
2019-Apr-15 09:30N 38°40' W 009°18'2 3.7
2019-Apr-15 09:00N 38°41' W 009°16'2 4.9
2019-Apr-15 08:30N 38°41' W 009°13'3 5.5
2019-Apr-15 08:01N 38°42' W 009°10'3 6.0
2019-Apr-15 07:30N 38°43' W 009°07'3 4.8
2019-Apr-15 06:59N 38°46' W 009°05'0 0.0
2019-Apr-15 06:29N 38°46' W 009°05'0 0.0
2019-Apr-15 06:00N 38°46' W 009°05'0 0.0
2019-Apr-15 05:30N 38°46' W 009°05'0 0.0
2019-Apr-15 05:00N 38°46' W 009°05'0 0.0
2019-Apr-15 04:30N 38°46' W 009°05'0 0.0
2019-Apr-15 04:00N 38°46' W 009°05'0 0.0
2019-Apr-15 03:30N 38°46' W 009°05'0 0.0
2019-Apr-15 03:00N 38°46' W 009°05'0 0.0
2019-Apr-15 02:30N 38°46' W 009°05'0 0.0
2019-Apr-15 02:00N 38°46' W 009°05'0 0.0
2019-Apr-15 01:30N 38°46' W 009°05'0 0.0
2019-Apr-15 01:00N 38°46' W 009°05'0 0.0
2019-Apr-15 00:30N 38°46' W 009°05'0 0.0
2019-Apr-14 23:59N 38°46' W 009°05'0 0.0
2019-Apr-14 23:30N 38°46' W 009°05'0 0.0
2019-Apr-14 23:00N 38°46' W 009°05'0 0.0
2019-Apr-14 22:30N 38°46' W 009°05'0 0.0
2019-Apr-14 22:00N 38°46' W 009°05'0 0.0
2019-Apr-14 21:30N 38°46' W 009°05'0 0.0
2019-Apr-14 21:00N 38°46' W 009°05'0 0.0
2019-Apr-14 20:30N 38°46' W 009°05'0 0.0
2019-Apr-14 20:00N 38°46' W 009°05'0 0.0
2019-Apr-14 19:30N 38°46' W 009°05'0 0.0
2019-Apr-14 19:00N 38°46' W 009°05'0 0.0
2019-Apr-14 18:30N 38°46' W 009°05'0 0.0
2019-Apr-14 17:59N 38°46' W 009°05'0 0.0
2019-Apr-14 17:30N 38°46' W 009°05'0 0.0
2019-Apr-14 17:00N 38°46' W 009°05'0 0.0
2019-Apr-14 16:30N 38°46' W 009°05'0 0.0
2019-Apr-14 16:00N 38°46' W 009°05'0 0.0
2019-Apr-14 15:29N 38°46' W 009°05'0 0.0
2019-Apr-14 14:59N 38°46' W 009°05'0 0.0
2019-Apr-14 14:29N 38°46' W 009°05'0 0.0
2019-Apr-14 14:00N 38°46' W 009°05'0 0.0
2019-Apr-14 13:30N 38°46' W 009°05'  
Track history (hours):
 
Tides and Currents Weather Stations Pressure Air Temp Water Temp Dewpoint Dewpoint Depression Visibility Wind Speed Wind Dir Waves Ship Positions

Santa Maria Manuela

Last reported at 2019-Apr-23 01:19 UTC. Time now 2019-Apr-25 16:00 UTC.
Position N 37°49' W 000°18'.

Length 68 m; draft 4.3 m.

Type: Sailing vessel. MMSI: 255806006.

Date/timePositionNaut miles runAvg speedWind from/ knotsBaromVisibWave heightAir tempDewpointWater temp
2019-Apr-23 01:19N 37°49' W 000°18'  
2019-Apr-19 15:52N 36°44' W 008°21'6 5.4
2019-Apr-19 14:42N 36°46' W 008°28'1 5.3
2019-Apr-19 14:30N 36°47' W 008°29'3 5.4
2019-Apr-19 14:00N 36°48' W 008°32'3 5.5
2019-Apr-19 13:27N 36°49' W 008°36'3 5.3
2019-Apr-19 12:53N 36°50' W 008°39'2 5.2
2019-Apr-19 12:30N 36°51' W 008°42'3 5.0
2019-Apr-19 12:00N 36°52' W 008°45'3 4.9
2019-Apr-19 11:29N 36°53' W 008°48'32 4.3
2019-Apr-19 04:03N 37°20' W 009°06'5 5.2
2019-Apr-19 03:00N 37°26' W 009°07'3 5.3
2019-Apr-19 02:29N 37°29' W 009°07'3 5.3
2019-Apr-19 02:00N 37°31' W 009°07'3 5.5
2019-Apr-19 01:30N 37°34' W 009°08'3 5.5
2019-Apr-19 00:58N 37°37' W 009°08'3 5.6
2019-Apr-19 00:30N 37°39' W 009°09'3 5.6
2019-Apr-19 00:00N 37°42' W 009°09'3 5.8
2019-Apr-18 23:30N 37°45' W 009°09'3 5.9
2019-Apr-18 23:00N 37°48' W 009°10'3 6.0
2019-Apr-18 22:30N 37°51' W 009°10'3 5.9
2019-Apr-18 22:01N 37°54' W 009°11'3 5.8
2019-Apr-18 21:30N 37°57' W 009°11'3 5.8
2019-Apr-18 21:01N 37°60' W 009°11'3 5.9
2019-Apr-18 20:30N 38°03' W 009°11'3 5.8
2019-Apr-18 20:00N 38°06' W 009°12'3 5.9
2019-Apr-18 19:30N 38°08' W 009°13'3 6.1
2019-Apr-18 19:00N 38°11' W 009°14'3 5.8
2019-Apr-18 18:30N 38°14' W 009°15'3 5.8
2019-Apr-18 18:00N 38°17' W 009°16'3 5.9
2019-Apr-18 17:30N 38°20' W 009°17'3 5.7
2019-Apr-18 17:00N 38°22' W 009°18'3 5.7
2019-Apr-18 16:30N 38°25' W 009°18'3 5.7
2019-Apr-18 16:00N 38°28' W 009°19'3 5.8
2019-Apr-18 15:30N 38°31' W 009°20'3 5.6
2019-Apr-18 15:01N 38°33' W 009°21'3 5.6
2019-Apr-18 14:30N 38°36' W 009°22'2 4.9
2019-Apr-18 14:00N 38°38' W 009°21'3 5.4
2019-Apr-18 13:30N 38°40' W 009°18'2 4.0
2019-Apr-18 13:00N 38°41' W 009°16'2 4.0
2019-Apr-18 12:30N 38°41' W 009°14'1 1.7
2019-Apr-18 12:00N 38°41' W 009°13'0 0.0
2019-Apr-18 11:30N 38°41' W 009°13'0 0.0
2019-Apr-18 10:57N 38°41' W 009°13'0 0.0
2019-Apr-18 10:21N 38°41' W 009°13'0 0.0
2019-Apr-18 09:58N 38°41' W 009°13'0 0.0
2019-Apr-18 09:30N 38°41' W 009°13'0 0.0
2019-Apr-18 09:00N 38°41' W 009°13'0 0.0
2019-Apr-18 08:31N 38°41' W 009°13'0 0.0
2019-Apr-18 08:00N 38°41' W 009°13'3 5.4
2019-Apr-18 07:30N 38°42' W 009°09'5 9.5
2019-Apr-18 07:00N 38°45' W 009°05'0 0.6
2019-Apr-18 06:30N 38°45' W 009°05'0 0.0
2019-Apr-18 06:00N 38°45' W 009°05'0 0.0
2019-Apr-18 05:30N 38°45' W 009°05'0 0.0
2019-Apr-18 05:00N 38°45' W 009°05'0 0.0
2019-Apr-18 04:30N 38°45' W 009°05'0 0.0
2019-Apr-18 04:00N 38°45' W 009°05'0 0.0
2019-Apr-18 03:30N 38°45' W 009°05'0 0.0
2019-Apr-18 03:00N 38°45' W 009°05'0 0.0
2019-Apr-18 02:30N 38°45' W 009°05'0 0.0
2019-Apr-18 02:00N 38°45' W 009°05'0 0.0
2019-Apr-18 01:30N 38°45' W 009°05'0 0.0
2019-Apr-18 01:00N 38°45' W 009°05'0 0.0
2019-Apr-18 00:30N 38°45' W 009°05'0 0.0
2019-Apr-18 00:00N 38°45' W 009°05'0 0.0
2019-Apr-17 23:30N 38°45' W 009°05'0 0.0
2019-Apr-17 23:00N 38°45' W 009°05'0 0.0
2019-Apr-17 22:30N 38°45' W 009°05'0 0.0
2019-Apr-17 22:00N 38°45' W 009°05'0 0.0
2019-Apr-17 21:24N 38°45' W 009°05'0 0.0
2019-Apr-17 21:00N 38°45' W 009°05'0 0.0
2019-Apr-17 20:27N 38°45' W 009°05'0 0.0
2019-Apr-17 19:54N 38°45' W 009°05'0 0.0
2019-Apr-17 19:30N 38°45' W 009°05'0 0.0
2019-Apr-17 19:00N 38°45' W 009°05'0 0.0
2019-Apr-17 18:27N 38°45' W 009°05'0 0.0
2019-Apr-17 18:00N 38°45' W 009°05'0 0.0
2019-Apr-17 17:30N 38°45' W 009°05'0 0.0
2019-Apr-17 17:00N 38°45' W 009°05'0 0.0
2019-Apr-17 16:30N 38°45' W 009°05'0 0.0
2019-Apr-17 15:57N 38°45' W 009°05'0 0.0
2019-Apr-17 15:30N 38°45' W 009°05'0 0.0
2019-Apr-17 15:00N 38°45' W 009°05'0 0.0
2019-Apr-17 14:30N 38°45' W 009°05'0 0.0
2019-Apr-17 14:00N 38°45' W 009°05'0 0.0
2019-Apr-17 13:30N 38°45' W 009°05'0 0.0
2019-Apr-17 12:57N 38°45' W 009°05'0 0.0
2019-Apr-17 12:30N 38°45' W 009°05'0 0.0
2019-Apr-17 12:00N 38°45' W 009°05'0 0.0
2019-Apr-17 11:30N 38°45' W 009°05'0 0.0
2019-Apr-17 11:00N 38°45' W 009°05'0 0.0
2019-Apr-17 10:30N 38°45' W 009°05'0 0.0
2019-Apr-17 10:00N 38°45' W 009°05'0 0.0
2019-Apr-17 09:30N 38°45' W 009°05'0 0.0
2019-Apr-17 09:00N 38°45' W 009°05'0 0.0
2019-Apr-17 08:30N 38°45' W 009°05'0 0.0
2019-Apr-17 08:00N 38°45' W 009°05'0 0.0
2019-Apr-17 07:30N 38°45' W 009°05'0 0.0
2019-Apr-17 07:00N 38°45' W 009°05'0 0.0
2019-Apr-17 06:30N 38°45' W 009°05'0 0.0
2019-Apr-17 06:00N 38°45' W 009°05'0 0.0
2019-Apr-17 05:30N 38°45' W 009°05'0 0.0
2019-Apr-17 05:00N 38°45' W 009°05'0 0.0
2019-Apr-17 04:27N 38°45' W 009°05'0 0.0
2019-Apr-17 04:00N 38°45' W 009°05'0 0.0
2019-Apr-17 03:30N 38°45' W 009°05'0 0.0
2019-Apr-17 03:00N 38°45' W 009°05'0 0.0
2019-Apr-17 02:30N 38°45' W 009°05'0 0.0
2019-Apr-17 01:57N 38°45' W 009°05'0 0.0
2019-Apr-17 01:30N 38°45' W 009°05'0 0.0
2019-Apr-17 01:00N 38°45' W 009°05'0 0.0
2019-Apr-17 00:30N 38°45' W 009°05'0 0.0
2019-Apr-17 00:00N 38°45' W 009°05'0 0.0
2019-Apr-16 23:30N 38°45' W 009°05'0 0.0
2019-Apr-16 23:00N 38°45' W 009°05'0 0.0
2019-Apr-16 22:30N 38°45' W 009°05'0 0.0
2019-Apr-16 22:00N 38°45' W 009°05'0 0.0
2019-Apr-16 21:30N 38°45' W 009°05'0 0.0
2019-Apr-16 21:00N 38°45' W 009°05'0 0.0
2019-Apr-16 20:27N 38°45' W 009°05'0 0.0
2019-Apr-16 20:00N 38°45' W 009°05'0 0.0
2019-Apr-16 19:27N 38°45' W 009°05'0 0.0
2019-Apr-16 19:00N 38°45' W 009°05'0 0.0
2019-Apr-16 18:30N 38°45' W 009°05'0 0.0
2019-Apr-16 18:00N 38°45' W 009°05'0 0.0
2019-Apr-16 17:30N 38°45' W 009°05'0 0.0
2019-Apr-16 16:57N 38°45' W 009°05'0 0.0
2019-Apr-16 16:30N 38°45' W 009°05'2 4.0
2019-Apr-16 16:00N 38°44' W 009°06'3 5.3
2019-Apr-16 15:30N 38°42' W 009°09'3 5.5
2019-Apr-16 15:00N 38°41' W 009°12'3 6.0
2019-Apr-16 14:30N 38°41' W 009°16'3 6.1
2019-Apr-16 14:00N 38°39' W 009°19'4 7.3
2019-Apr-16 13:31N 38°37' W 009°23'4 7.2
2019-Apr-16 13:00N 38°33' W 009°24'1 1.3
2019-Apr-16 12:30N 38°34' W 009°25'1 2.7
2019-Apr-16 12:00N 38°33' W 009°26'1 3.0
2019-Apr-16 11:30N 38°31' W 009°26'2 3.3
2019-Apr-16 11:01N 38°30' W 009°25'2 3.3
2019-Apr-16 10:30N 38°28' W 009°24'2 3.2
2019-Apr-16 10:00N 38°27' W 009°23'2 3.3
2019-Apr-16 09:30N 38°25' W 009°22'2 3.4
2019-Apr-16 09:00N 38°24' W 009°22'1 2.8
2019-Apr-16 08:30N 38°23' W 009°20'2 3.1
2019-Apr-16 08:01N 38°23' W 009°19'2 3.1
2019-Apr-16 07:30N 38°23' W 009°17'2 3.1
2019-Apr-16 07:00N 38°23' W 009°15'1 2.9
2019-Apr-16 06:31N 38°23' W 009°13'1 2.6
2019-Apr-16 06:00N 38°23' W 009°11'1 2.6
2019-Apr-16 05:30N 38°23' W 009°09'1 1.7
2019-Apr-16 05:00N 38°23' W 009°08'1 1.3
2019-Apr-16 04:30N 38°24' W 009°08'1 1.2
2019-Apr-16 04:00N 38°24' W 009°07'1 1.6
2019-Apr-16 03:30N 38°24' W 009°06'1 1.4
2019-Apr-16 03:00N 38°24' W 009°05'1 1.2
2019-Apr-16 02:30N 38°24' W 009°04'1 1.2
2019-Apr-16 02:00N 38°24' W 009°03'1 1.2
2019-Apr-16 01:30N 38°24' W 009°03'1 1.2
2019-Apr-16 01:00N 38°25' W 009°02'1 1.2
2019-Apr-16 00:30N 38°25' W 009°01'1 1.0
2019-Apr-16 00:01N 38°25' W 009°01'1 1.0
2019-Apr-15 23:30N 38°25' W 009°00'1 1.1
2019-Apr-15 23:00N 38°25' W 008°59'1 1.2
2019-Apr-15 22:30N 38°25' W 008°59'1 2.1
2019-Apr-15 22:00N 38°25' W 008°58'1 1.8
2019-Apr-15 21:30N 38°24' W 008°57'1 1.4
2019-Apr-15 21:00N 38°24' W 008°56'1 1.5
2019-Apr-15 20:29N 38°23' W 008°57'1 2.4
2019-Apr-15 20:00N 38°23' W 008°58'1 2.7
2019-Apr-15 19:31N 38°23' W 008°60'1 2.8
2019-Apr-15 19:01N 38°23' W 009°02'2 3.1
2019-Apr-15 18:30N 38°22' W 009°03'2 3.1
2019-Apr-15 18:01N 38°22' W 009°05'2 4.1
2019-Apr-15 17:30N 38°22' W 009°08'2 4.6
2019-Apr-15 17:00N 38°22' W 009°11'3 5.1
2019-Apr-15 16:30N 38°23' W 009°14'2 4.9
2019-Apr-15 16:01N 38°24' W 009°17'3 5.3
2019-Apr-15 15:30N 38°26' W 009°19'2 5.0
2019-Apr-15 15:00N 38°28' W 009°21'3 5.7
2019-Apr-15 14:31N 38°28' W 009°25'2 4.2
2019-Apr-15 14:00N 38°29' W 009°27'1 2.2
2019-Apr-15 13:31N 38°30' W 009°28'2 3.3
2019-Apr-15 13:01N 38°31' W 009°29'2 4.4
2019-Apr-15 12:31N 38°33' W 009°29'2 3.1
2019-Apr-15 12:01N 38°34' W 009°27'1 2.9
2019-Apr-15 11:30N 38°35' W 009°26'2 3.0
2019-Apr-15 11:00N 38°36' W 009°24'1 3.0
2019-Apr-15 10:31N 38°37' W 009°23'2 4.4
2019-Apr-15 10:00N 38°39' W 009°21'2 4.8
2019-Apr-15 09:30N 38°40' W 009°18'2 3.7
2019-Apr-15 09:00N 38°41' W 009°16'2 4.9
2019-Apr-15 08:30N 38°41' W 009°13'3 5.5
2019-Apr-15 08:01N 38°42' W 009°10'3 6.0
2019-Apr-15 07:30N 38°43' W 009°07'3 4.8
2019-Apr-15 06:59N 38°46' W 009°05'0 0.0
2019-Apr-15 06:29N 38°46' W 009°05'0 0.0
2019-Apr-15 06:00N 38°46' W 009°05'0 0.0
2019-Apr-15 05:30N 38°46' W 009°05'0 0.0
2019-Apr-15 05:00N 38°46' W 009°05'0 0.0
2019-Apr-15 04:30N 38°46' W 009°05'0 0.0
2019-Apr-15 04:00N 38°46' W 009°05'0 0.0
2019-Apr-15 03:30N 38°46' W 009°05'0 0.0
2019-Apr-15 03:00N 38°46' W 009°05'0 0.0
2019-Apr-15 02:30N 38°46' W 009°05'0 0.0
2019-Apr-15 02:00N 38°46' W 009°05'0 0.0
2019-Apr-15 01:30N 38°46' W 009°05'0 0.0
2019-Apr-15 01:00N 38°46' W 009°05'0 0.0
2019-Apr-15 00:30N 38°46' W 009°05'0 0.0
2019-Apr-14 23:59N 38°46' W 009°05'0 0.0
2019-Apr-14 23:30N 38°46' W 009°05'0 0.0
2019-Apr-14 23:00N 38°46' W 009°05'0 0.0
2019-Apr-14 22:30N 38°46' W 009°05'0 0.0
2019-Apr-14 22:00N 38°46' W 009°05'0 0.0
2019-Apr-14 21:30N 38°46' W 009°05'0 0.0
2019-Apr-14 21:00N 38°46' W 009°05'0 0.0
2019-Apr-14 20:30N 38°46' W 009°05'0 0.0
2019-Apr-14 20:00N 38°46' W 009°05'0 0.0
2019-Apr-14 19:30N 38°46' W 009°05'0 0.0
2019-Apr-14 19:00N 38°46' W 009°05'0 0.0
2019-Apr-14 18:30N 38°46' W 009°05'0 0.0
2019-Apr-14 17:59N 38°46' W 009°05'0 0.0
2019-Apr-14 17:30N 38°46' W 009°05'0 0.0
2019-Apr-14 17:00N 38°46' W 009°05'0 0.0
2019-Apr-14 16:30N 38°46' W 009°05'0 0.0
2019-Apr-14 16:00N 38°46' W 009°05'0 0.0
2019-Apr-14 15:29N 38°46' W 009°05'0 0.0
2019-Apr-14 14:59N 38°46' W 009°05'0 0.0
2019-Apr-14 14:29N 38°46' W 009°05'0 0.0
2019-Apr-14 14:00N 38°46' W 009°05'0 0.0
2019-Apr-14 13:30N 38°46' W 009°05'  

Dump ship's entire track history